Time;durP1;ratioP1;P1;durP2;ratioP2;P2;SDS_P1;SDS_P2;PMS_P1;PMS_P2;Temp;Humidity;BMP_temperature;BMP_pressure;BME280_temperature;BME280_humidity;BME280_pressure;Samples;Min_cycle;Max_cycle;Signal;HPM_P1;HPM_P2
2021/04/22 00:00:22;;;;;;;20.42;13.88;;;;;;;8.69;100.00;96065.09;1019556;29;20410;-62
2021/04/22 00:00:53;;;;;;;19.80;13.73;;;;;;;8.66;100.00;96065.41;1027563;28;20042;-60
2021/04/22 00:01:24;;;;;;;17.95;13.10;;;;;;;8.61;100.00;96067.72;1027389;28;20428;-61
2021/04/22 00:01:55;;;;;;;21.50;14.73;;;;;;;8.57;100.00;96064.56;1027756;28;20093;-61
2021/04/22 00:02:25;;;;;;;20.65;14.02;;;;;;;8.54;100.00;96069.34;1023591;28;20030;-61
2021/04/22 00:02:56;;;;;;;21.27;14.25;;;;;;;8.55;100.00;96068.34;1027622;28;20054;-62
2021/04/22 00:03:27;;;;;;;20.73;13.98;;;;;;;8.48;100.00;96069.00;1031389;28;20085;-62
2021/04/22 00:03:58;;;;;;;20.45;13.50;;;;;;;8.48;100.00;96063.69;1027300;28;20096;-63
2021/04/22 00:04:28;;;;;;;19.02;13.70;;;;;;;8.47;100.00;96064.69;1023507;29;20148;-62
2021/04/22 00:05:00;;;;;;;18.23;13.15;;;;;;;8.47;100.00;96061.22;1023486;29;20085;-61
2021/04/22 00:05:39;;;;;;;19.23;13.45;;;;;;;8.47;100.00;96058.56;1023499;29;20564;-60
2021/04/22 00:06:10;;;;;;;20.30;13.98;;;;;;;8.49;100.00;96057.41;1023504;29;20027;-62
2021/04/22 00:06:41;;;;;;;18.23;12.20;;;;;;;8.51;100.00;96049.31;1035681;28;20030;-62
2021/04/22 00:07:13;;;;;;;19.30;13.00;;;;;;;8.53;100.00;96049.97;1027607;28;20503;-61
2021/04/22 00:07:46;;;;;;;22.52;14.82;;;;;;;8.51;100.00;96053.78;1023336;28;20058;-60
2021/04/22 00:08:17;;;;;;;25.88;14.52;;;;;;;8.51;100.00;96053.78;1031510;28;20053;-61
2021/04/22 00:08:48;;;;;;;20.02;13.43;;;;;;;8.51;100.00;96049.31;1027593;28;20022;-59
2021/04/22 00:09:19;;;;;;;19.92;13.80;;;;;;;8.51;100.00;96048.47;1031565;28;20102;-61
2021/04/22 00:09:50;;;;;;;22.58;13.32;;;;;;;8.51;100.00;96043.19;1035480;28;20029;-62
2021/04/22 00:10:25;;;;;;;17.92;13.02;;;;;;;8.53;100.00;96043.84;1027564;28;20027;-62
2021/04/22 00:10:56;;;;;;;17.55;12.73;;;;;;;8.53;100.00;96049.16;1035580;28;20033;-62
2021/04/22 00:11:27;;;;;;;18.38;12.82;;;;;;;8.53;100.00;96043.84;1031696;28;20091;-60
2021/04/22 00:11:58;;;;;;;16.63;12.13;;;;;;;8.51;100.00;96044.00;1015625;29;20459;-62
2021/04/22 00:12:29;;;;;;;19.85;12.75;;;;;;;8.51;100.00;96048.47;1031559;28;20026;-62
2021/04/22 00:13:01;;;;;;;17.45;12.55;;;;;;;8.43;100.00;96044.81;1027570;28;20022;-62
2021/04/22 00:13:32;;;;;;;18.75;12.25;;;;;;;8.48;100.00;96039.88;1019453;29;20026;-61
2021/04/22 00:14:04;;;;;;;18.80;13.00;;;;;;;8.52;100.00;96034.25;1019428;29;20028;-62
2021/04/22 00:14:35;;;;;;;18.42;11.93;;;;;;;8.53;100.00;96036.72;1019649;29;20023;-61
2021/04/22 00:15:10;;;;;;;15.85;11.48;;;;;;;8.54;100.00;96040.22;1019556;29;20016;-61
2021/04/22 00:15:41;;;;;;;16.27;11.77;;;;;;;8.54;100.00;96037.56;1015646;29;20024;-61
2021/04/22 00:16:13;;;;;;;18.67;11.77;;;;;;;8.56;100.00;96031.13;1023404;29;20448;-62
2021/04/22 00:16:44;;;;;;;14.38;10.50;;;;;;;8.57;100.00;96031.94;1023530;29;20030;-61
2021/04/22 00:17:16;;;;;;;19.83;11.75;;;;;;;8.54;100.00;96021.69;1031595;28;20099;-62
2021/04/22 00:17:48;;;;;;;16.02;11.18;;;;;;;8.61;100.00;96017.41;1019261;29;20602;-61
2021/04/22 00:18:19;;;;;;;15.50;10.38;;;;;;;8.66;100.00;96020.41;1019667;29;20031;-61
2021/04/22 00:18:50;;;;;;;15.45;10.05;;;;;;;8.70;100.00;96021.72;1019572;29;20426;-59
2021/04/22 00:19:21;;;;;;;14.00;9.38;;;;;;;8.69;100.00;96025.38;1023596;29;20023;-61
2021/04/22 00:19:52;;;;;;;16.50;10.15;;;;;;;8.68;100.00;96016.59;1035504;28;20014;-61
2021/04/22 00:20:23;;;;;;;14.25;9.85;;;;;;;8.73;100.00;96018.75;1027617;28;20019;-62
2021/04/22 00:20:54;;;;;;;13.38;9.30;;;;;;;8.72;100.00;96014.44;1023632;28;20418;-61
2021/04/22 00:21:25;;;;;;;13.77;10.30;;;;;;;8.73;100.00;96015.28;1028449;28;20038;-60
2021/04/22 00:21:56;;;;;;;14.27;10.07;;;;;;;8.76;100.00;96017.59;1032254;28;20024;-61
2021/04/22 00:22:27;;;;;;;15.90;11.05;;;;;;;8.75;100.00;96022.06;1032273;28;20507;-62
2021/04/22 00:22:58;;;;;;;14.13;10.52;;;;;;;8.74;100.00;96022.22;1028314;28;20026;-62
2021/04/22 00:23:29;;;;;;;14.43;9.63;;;;;;;8.72;100.00;96011.78;1024385;28;20564;-60
2021/04/22 00:24:00;;;;;;;15.00;9.82;;;;;;;8.75;100.00;96018.59;1024189;28;20581;-62
2021/04/22 00:24:31;;;;;;;16.00;10.25;;;;;;;8.76;100.00;96022.88;1024281;28;20023;-61
2021/04/22 00:25:03;;;;;;;15.13;10.13;;;;;;;8.74;100.00;96012.44;1036330;28;20026;-62
2021/04/22 00:25:34;;;;;;;14.27;9.77;;;;;;;8.77;100.00;96014.78;1032397;28;20018;-62
2021/04/22 00:26:05;;;;;;;14.98;10.15;;;;;;;8.82;100.00;96020.41;1036398;28;20434;-61
2021/04/22 00:26:36;;;;;;;14.80;10.82;;;;;;;8.80;100.00;96019.75;1028244;28;20015;-61
2021/04/22 00:27:07;;;;;;;14.23;10.65;;;;;;;8.77;100.00;96017.44;1028265;28;20504;-60
2021/04/22 00:27:38;;;;;;;12.98;9.43;;;;;;;8.77;100.00;96016.63;1020336;29;20047;-61
2021/04/22 00:28:10;;;;;;;14.68;10.00;;;;;;;8.80;100.00;96017.13;1020274;29;20022;-62
2021/04/22 00:28:41;;;;;;;17.13;10.73;;;;;;;8.80;100.00;96017.13;1028230;28;20033;-62
2021/04/22 00:29:12;;;;;;;14.40;10.07;;;;;;;8.80;100.00;96014.47;1028317;28;20397;-62
2021/04/22 00:29:43;;;;;;;12.38;9.15;;;;;;;8.81;100.00;96013.47;1028358;28;20481;-62
2021/04/22 00:30:15;;;;;;;13.07;9.10;;;;;;;8.83;100.00;96010.66;1032230;28;20487;-63
2021/04/22 00:30:46;;;;;;;14.90;9.75;;;;;;;8.80;100.00;96009.16;1032381;28;20093;-61
2021/04/22 00:31:17;;;;;;;15.93;10.13;;;;;;;8.81;100.00;96008.19;1032337;28;20492;-61
2021/04/22 00:31:48;;;;;;;13.40;9.18;;;;;;;8.70;100.00;95989.94;1032460;28;20496;-63
2021/04/22 00:32:18;;;;;;;13.98;9.57;;;;;;;8.87;100.00;96007.53;1020367;28;20059;-60
2021/04/22 00:32:49;;;;;;;13.13;9.20;;;;;;;8.89;100.00;96006.53;1028262;28;20094;-62
2021/04/22 00:33:22;;;;;;;11.38;8.35;;;;;;;8.89;100.00;96010.00;1024193;28;20047;-61
2021/04/22 00:33:53;;;;;;;11.25;8.25;;;;;;;8.90;100.00;96000.22;1032133;28;20038;-60
2021/04/22 00:34:24;;;;;;;11.65;8.40;;;;;;;8.87;100.00;96007.53;1028178;28;20509;-62
2021/04/22 00:34:54;;;;;;;12.32;8.10;;;;;;;8.90;100.00;96002.88;1020326;29;20024;-59
2021/04/22 00:35:25;;;;;;;12.57;8.13;;;;;;;8.91;100.00;96001.91;1024177;29;20026;-61
2021/04/22 00:35:56;;;;;;;12.65;8.73;;;;;;;8.91;100.00;95997.41;1020315;29;20024;-61
2021/04/22 00:36:27;;;;;;;12.20;8.82;;;;;;;8.92;100.00;95998.25;1024237;29;20031;-61
2021/04/22 00:36:57;;;;;;;12.52;8.73;;;;;;;8.92;100.00;96003.53;1024137;29;20015;-62
2021/04/22 00:37:28;;;;;;;12.75;8.93;;;;;;;8.90;100.00;96000.22;1024248;29;20015;-61
2021/04/22 00:37:59;;;;;;;12.75;8.32;;;;;;;8.91;100.00;96002.72;1028248;28;20019;-61
2021/04/22 00:38:30;;;;;;;11.80;8.48;;;;;;;8.91;100.00;95996.59;1024242;29;20045;-62
2021/04/22 00:39:00;;;;;;;11.38;8.55;;;;;;;8.87;100.00;96006.69;1024117;29;20031;-62
2021/04/22 00:39:31;;;;;;;12.45;8.95;;;;;;;8.89;100.00;96004.72;1024202;29;20079;-61
2021/04/22 00:40:13;;;;;;;12.73;8.93;;;;;;;8.87;100.00;95996.09;1028211;28;20023;-62
2021/04/22 00:40:45;;;;;;;11.82;8.68;;;;;;;8.91;100.00;96001.91;1036229;28;20037;-61
2021/04/22 00:41:16;;;;;;;12.20;8.05;;;;;;;8.91;100.00;96005.38;1040397;28;20045;-62
2021/04/22 00:41:46;;;;;;;11.98;8.48;;;;;;;8.93;100.00;96005.22;1020356;29;20118;-61
2021/04/22 00:42:18;;;;;;;11.82;8.40;;;;;;;8.94;100.00;96004.22;1032209;28;20022;-62
2021/04/22 00:42:49;;;;;;;10.38;7.95;;;;;;;8.93;100.00;96000.72;1036199;28;20026;-61
2021/04/22 00:43:22;;;;;;;11.60;8.27;;;;;;;8.92;100.00;96000.88;1024132;29;20027;-62
2021/04/22 00:43:53;;;;;;;12.50;7.82;;;;;;;8.92;100.00;96003.53;1036057;28;20021;-61
2021/04/22 00:44:24;;;;;;;15.50;8.27;;;;;;;8.81;100.00;95984.34;1032376;28;20161;-62
2021/04/22 00:44:55;;;;;;;10.35;7.68;;;;;;;8.91;100.00;96001.91;1024277;29;20082;-62
2021/04/22 00:45:26;;;;;;;11.43;7.95;;;;;;;8.86;100.00;95995.28;1028258;28;20034;-62
2021/04/22 00:45:57;;;;;;;12.48;8.70;;;;;;;8.89;100.00;96006.53;1024277;29;20098;-59
2021/04/22 00:46:28;;;;;;;14.55;7.57;;;;;;;8.91;100.00;96004.56;1024280;29;20070;-62
2021/04/22 00:46:58;;;;;;;11.20;8.00;;;;;;;8.83;100.00;95985.00;1024267;29;20078;-61
2021/04/22 00:47:30;;;;;;;13.55;8.45;;;;;;;8.93;100.00;95997.25;1024202;29;20477;-60
2021/04/22 00:48:00;;;;;;;11.50;7.82;;;;;;;8.93;100.00;95999.91;1040379;28;20017;-61
2021/04/22 00:48:31;;;;;;;10.00;7.18;;;;;;;8.86;100.00;96000.59;1024271;29;20035;-61
2021/04/22 00:49:03;;;;;;;11.15;7.70;;;;;;;8.90;100.00;96005.53;1028190;28;20113;-61
2021/04/22 00:49:33;;;;;;;12.05;8.75;;;;;;;8.87;100.00;96007.53;1032157;28;20018;-62
2021/04/22 00:50:06;;;;;;;11.05;8.40;;;;;;;8.89;100.00;96006.53;1024304;29;20047;-62
2021/04/22 00:50:38;;;;;;;12.40;8.68;;;;;;;8.89;100.00;96003.88;1028305;28;20023;-62
2021/04/22 00:51:09;;;;;;;14.18;9.85;;;;;;;8.90;100.00;96009.03;1032322;28;20535;-62
2021/04/22 00:51:40;;;;;;;12.50;9.10;;;;;;;8.90;100.00;96005.53;1024224;29;20075;-62
2021/04/22 00:52:11;;;;;;;12.13;8.65;;;;;;;8.89;100.00;96009.19;1036332;28;20022;-62
2021/04/22 00:52:42;;;;;;;10.43;7.85;;;;;;;8.89;100.00;96004.72;1032765;28;20026;-62
2021/04/22 00:53:13;;;;;;;10.45;7.50;;;;;;;8.90;100.00;96008.19;1032723;28;20014;-62
2021/04/22 00:53:44;;;;;;;9.05;6.43;;;;;;;8.89;100.00;96003.88;1028647;28;20481;-62
2021/04/22 00:54:14;;;;;;;10.20;6.60;;;;;;;8.88;100.00;96005.69;1016924;29;20020;-62
2021/04/22 00:54:45;;;;;;;11.63;7.22;;;;;;;8.87;100.00;96001.41;1021107;29;20518;-61
2021/04/22 00:55:16;;;;;;;11.43;7.13;;;;;;;8.87;100.00;96006.69;1020719;29;20143;-60
2021/04/22 00:55:48;;;;;;;9.05;7.03;;;;;;;8.59;100.00;95966.44;1032315;28;20037;-61
2021/04/22 00:56:19;;;;;;;11.35;7.97;;;;;;;8.87;100.00;96010.16;1028355;28;20051;-62
2021/04/22 00:56:50;;;;;;;9.93;7.35;;;;;;;8.87;100.00;96004.88;1032453;28;20022;-62
2021/04/22 00:57:21;;;;;;;9.77;6.78;;;;;;;8.86;100.00;96005.88;1032413;28;20026;-62
2021/04/22 00:57:53;;;;;;;9.27;6.75;;;;;;;8.86;100.00;96005.88;1033134;28;20022;-62
2021/04/22 00:58:23;;;;;;;9.15;6.82;;;;;;;8.85;100.00;96004.22;1033386;28;20033;-61
2021/04/22 00:58:54;;;;;;;8.07;6.22;;;;;;;8.87;100.00;96002.22;1029279;28;20409;-62
2021/04/22 00:59:25;;;;;;;8.77;6.28;;;;;;;8.87;100.00;96004.88;1032341;28;20105;-61
2021/04/22 00:59:56;;;;;;;8.93;6.35;;;;;;;8.86;100.00;96008.53;1036099;28;20028;-61
2021/04/22 01:00:31;;;;;;;9.95;7.60;;;;;;;8.86;100.00;96005.03;1036358;28;20021;-63
2021/04/22 01:01:02;;;;;;;11.57;7.97;;;;;;;8.84;100.00;96002.53;1028213;28;20401;-60
2021/04/22 01:01:33;;;;;;;11.30;8.20;;;;;;;8.83;100.00;96003.56;1024187;28;20145;-61
2021/04/22 01:02:07;;;;;;;11.35;7.93;;;;;;;8.83;100.00;96011.50;1020117;29;20118;-61
2021/04/22 01:02:38;;;;;;;11.20;7.57;;;;;;;8.72;100.00;95982.66;1020232;29;20012;-62
2021/04/22 01:03:09;;;;;;;9.63;7.18;;;;;;;8.84;100.00;96007.03;1032150;28;20117;-62
2021/04/22 01:03:40;;;;;;;9.52;6.80;;;;;;;8.84;100.00;96004.38;1023970;28;20027;-61
2021/04/22 01:04:11;;;;;;;11.73;7.72;;;;;;;8.83;100.00;96003.56;1032160;28;20105;-62
2021/04/22 01:04:44;;;;;;;12.32;7.88;;;;;;;8.81;100.00;96002.91;1024175;29;20026;-61
2021/04/22 01:05:17;;;;;;;10.32;7.38;;;;;;;8.83;100.00;96005.34;1032258;28;20022;-61
2021/04/22 01:05:50;;;;;;;11.18;7.45;;;;;;;8.83;100.00;96005.34;1032138;28;20022;-62
2021/04/22 01:06:22;;;;;;;9.35;6.50;;;;;;;8.83;100.00;96011.50;1028124;28;20118;-61
2021/04/22 01:06:53;;;;;;;9.98;7.88;;;;;;;8.83;100.00;96005.34;1028187;28;20015;-62
2021/04/22 01:07:24;;;;;;;11.05;7.03;;;;;;;8.83;100.00;96006.19;1028208;28;20396;-61
2021/04/22 01:07:54;;;;;;;10.02;7.45;;;;;;;8.84;100.00;95999.91;1028071;28;20093;-62
2021/04/22 01:08:25;;;;;;;9.75;6.88;;;;;;;8.84;100.00;96004.38;1036201;28;20495;-62
2021/04/22 01:08:56;;;;;;;8.95;6.57;;;;;;;8.82;100.00;96007.19;1032156;28;20033;-62
2021/04/22 01:09:27;;;;;;;9.13;7.10;;;;;;;8.83;100.00;96006.19;1032180;28;20113;-61
2021/04/22 01:09:58;;;;;;;10.80;6.47;;;;;;;8.80;100.00;96006.53;1032074;28;20022;-61
2021/04/22 01:10:29;;;;;;;10.30;6.80;;;;;;;8.80;100.00;96003.06;1028187;28;20094;-62
2021/04/22 01:11:02;;;;;;;10.90;6.88;;;;;;;8.81;100.00;95999.41;1024247;29;20528;-62
2021/04/22 01:11:33;;;;;;;9.15;6.88;;;;;;;8.80;100.00;95998.56;1032180;28;20026;-62
2021/04/22 01:12:06;;;;;;;11.15;7.13;;;;;;;8.60;100.00;95963.63;1024017;29;20059;-60
2021/04/22 01:12:37;;;;;;;8.27;6.47;;;;;;;8.77;100.00;95998.91;1020171;29;20096;-61
2021/04/22 01:13:08;;;;;;;9.45;6.07;;;;;;;8.77;100.00;96001.53;1032124;28;20088;-61
2021/04/22 01:13:40;;;;;;;10.60;7.57;;;;;;;8.73;100.00;96002.88;1031395;28;20073;-62
2021/04/22 01:14:11;;;;;;;9.18;5.95;;;;;;;8.75;100.00;95997.41;1028067;28;20018;-61
2021/04/22 01:14:41;;;;;;;8.57;6.47;;;;;;;8.75;100.00;95997.41;1024179;29;20023;-62
2021/04/22 01:15:16;;;;;;;9.45;6.82;;;;;;;8.74;100.00;95998.41;1020221;29;20085;-63
2021/04/22 01:15:48;;;;;;;10.05;6.82;;;;;;;8.73;100.00;95996.75;1016292;29;20043;-61
2021/04/22 01:16:18;;;;;;;9.35;6.47;;;;;;;8.73;100.00;95994.09;1020213;29;20019;-61
2021/04/22 01:16:50;;;;;;;9.07;6.40;;;;;;;8.69;100.00;95990.97;1024187;29;20433;-61
2021/04/22 01:17:21;;;;;;;10.00;6.75;;;;;;;8.59;100.00;95979.69;1032165;28;20022;-62
2021/04/22 01:17:52;;;;;;;11.23;6.65;;;;;;;8.64;100.00;96002.03;1023862;29;20397;-63
2021/04/22 01:18:24;;;;;;;11.52;8.65;;;;;;;8.64;100.00;95999.38;1016130;29;20020;-62
2021/04/22 01:18:55;;;;;;;9.02;6.65;;;;;;;8.63;100.00;95999.53;1020180;29;20088;-61
2021/04/22 01:19:26;;;;;;;9.77;7.35;;;;;;;8.59;100.00;96001.69;1028034;28;20018;-62
2021/04/22 01:19:57;;;;;;;9.93;7.28;;;;;;;8.57;100.00;96003.66;1024106;29;20027;-62
2021/04/22 01:20:31;;;;;;;8.68;6.30;;;;;;;8.48;100.00;95994.88;1024152;28;20031;-60
2021/04/22 01:21:02;;;;;;;10.38;7.30;;;;;;;8.51;100.00;95999.00;1027999;28;20027;-61
2021/04/22 01:21:33;;;;;;;8.27;6.57;;;;;;;8.48;100.00;95999.31;1024071;29;20529;-62
2021/04/22 01:22:04;;;;;;;8.88;6.68;;;;;;;8.43;100.00;96001.63;1028077;28;20019;-62
2021/04/22 01:22:35;;;;;;;10.55;6.93;;;;;;;8.36;100.00;96005.88;1020061;29;20498;-62
2021/04/22 01:23:06;;;;;;;9.27;7.25;;;;;;;8.15;100.00;96001.00;1024115;29;20050;-62
2021/04/22 01:23:37;;;;;;;10.52;7.43;;;;;;;8.21;100.00;96000.38;1023989;28;20485;-61
2021/04/22 01:24:09;;;;;;;9.75;7.60;;;;;;;8.23;100.00;96001.88;1024059;29;20027;-60
2021/04/22 01:24:40;;;;;;;10.93;7.80;;;;;;;8.21;100.00;95997.75;1028023;28;20077;-62
2021/04/22 01:25:15;;;;;;;10.95;7.20;;;;;;;8.20;100.00;96001.38;1024055;29;20082;-61
2021/04/22 01:25:47;;;;;;;9.80;6.60;;;;;;;8.14;100.00;96002.84;1024168;29;20474;-62
2021/04/22 01:26:23;;;;;;;9.90;7.32;;;;;;;8.13;100.00;96009.09;1032237;28;20400;-61
2021/04/22 01:26:54;;;;;;;9.15;6.88;;;;;;;8.11;100.00;96009.25;1025616;28;20023;-61
2021/04/22 01:27:24;;;;;;;10.35;7.10;;;;;;;8.14;100.00;96007.31;1036099;28;20022;-62
2021/04/22 01:27:55;;;;;;;10.77;7.00;;;;;;;8.09;100.00;96005.13;1020033;29;20032;-62
2021/04/22 01:28:27;;;;;;;11.00;6.57;;;;;;;8.07;100.00;96009.75;1016318;29;20455;-61
2021/04/22 01:28:58;;;;;;;9.60;7.22;;;;;;;8.04;100.00;96004.78;1020071;29;20020;-62
2021/04/22 01:29:29;;;;;;;11.40;6.65;;;;;;;7.97;100.00;95994.00;1028069;28;20041;-61
2021/04/22 01:30:00;;;;;;;10.55;7.13;;;;;;;7.99;100.00;96010.53;1028130;28;20199;-62
2021/04/22 01:30:33;;;;;;;11.23;7.20;;;;;;;7.97;100.00;96009.88;1032112;28;20052;-61
2021/04/22 01:31:04;;;;;;;11.63;7.68;;;;;;;7.90;100.00;96003.56;1020036;29;20460;-62
2021/04/22 01:31:34;;;;;;;11.15;7.90;;;;;;;7.96;100.00;96012.66;1032100;28;20031;-62
2021/04/22 01:32:06;;;;;;;10.00;7.22;;;;;;;7.93;100.00;96009.34;1027686;28;20026;-62
2021/04/22 01:32:37;;;;;;;10.35;7.78;;;;;;;7.89;100.00;96009.84;1028146;28;20431;-62
2021/04/22 01:33:09;;;;;;;9.15;6.57;;;;;;;7.88;100.00;96010.81;1035940;28;20068;-62
2021/04/22 01:33:40;;;;;;;11.63;7.78;;;;;;;7.88;100.00;96010.81;1027829;28;20011;-60
2021/04/22 01:34:11;;;;;;;12.23;8.00;;;;;;;7.85;100.00;96017.25;1032063;28;20014;-61
2021/04/22 01:34:42;;;;;;;10.48;7.00;;;;;;;7.84;100.00;96012.97;1032093;28;20022;-61
2021/04/22 01:35:15;;;;;;;10.75;7.20;;;;;;;7.82;100.00;96016.72;1027909;28;20477;-60
2021/04/22 01:35:48;;;;;;;10.05;6.70;;;;;;;7.63;100.00;95988.69;1020078;29;20036;-60
2021/04/22 01:36:19;;;;;;;9.98;7.25;;;;;;;7.78;100.00;96018.03;1016290;29;20059;-62
2021/04/22 01:36:50;;;;;;;11.25;7.72;;;;;;;7.68;100.00;96000.47;1028075;28;20531;-61
2021/04/22 01:37:21;;;;;;;12.65;8.30;;;;;;;7.72;100.00;96017.66;1023957;29;20476;-62
2021/04/22 01:37:51;;;;;;;10.77;7.32;;;;;;;7.69;100.00;96014.50;1027999;28;20428;-62
2021/04/22 01:38:22;;;;;;;11.05;7.80;;;;;;;7.64;100.00;96014.97;1032066;28;20026;-62
2021/04/22 01:38:53;;;;;;;11.07;8.23;;;;;;;7.63;100.00;96018.63;1028095;28;20523;-62
2021/04/22 01:39:24;;;;;;;10.35;7.57;;;;;;;7.60;100.00;96015.47;1035975;28;20032;-62
2021/04/22 01:39:55;;;;;;;13.93;7.57;;;;;;;7.59;100.00;96011.97;1024110;29;20486;-62
2021/04/22 01:40:26;;;;;;;11.57;7.93;;;;;;;7.58;100.00;96009.50;1024088;29;20023;-61
2021/04/22 01:40:58;;;;;;;11.18;7.97;;;;;;;7.58;100.00;96017.44;1024091;29;20035;-60
2021/04/22 01:41:29;;;;;;;11.35;7.57;;;;;;;7.58;100.00;96020.91;1023964;29;20026;-61
2021/04/22 01:42:00;;;;;;;11.52;7.93;;;;;;;7.55;100.00;96015.91;1023998;29;20031;-61
2021/04/22 01:42:30;;;;;;;12.60;8.52;;;;;;;7.52;100.00;96021.50;1023904;29;20497;-61
2021/04/22 01:43:01;;;;;;;12.48;7.75;;;;;;;7.52;100.00;96019.72;1028124;28;20027;-62
2021/04/22 01:43:32;;;;;;;10.00;7.05;;;;;;;7.55;100.00;96021.19;1031810;28;20097;-61
2021/04/22 01:44:05;;;;;;;14.73;8.82;;;;;;;7.55;100.00;96013.28;1032009;28;20485;-61
2021/04/22 01:44:36;;;;;;;11.23;7.80;;;;;;;7.55;100.00;96015.91;1028009;28;20101;-61
2021/04/22 01:45:08;;;;;;;13.48;7.57;;;;;;;7.49;100.00;96021.81;1036129;28;20014;-60
2021/04/22 01:45:39;;;;;;;13.25;7.72;;;;;;;7.49;100.00;96021.81;1024048;29;20322;-61
2021/04/22 01:46:10;;;;;;;11.57;8.23;;;;;;;7.47;100.00;96024.63;1027984;28;20030;-60
2021/04/22 01:46:41;;;;;;;11.88;8.82;;;;;;;7.46;100.00;96024.78;1024042;28;20047;-61
2021/04/22 01:47:12;;;;;;;12.10;8.77;;;;;;;7.44;100.00;96024.13;1028045;28;20058;-61
2021/04/22 01:47:43;;;;;;;12.10;9.00;;;;;;;7.42;100.00;96026.91;1027867;28;20460;-61
2021/04/22 01:48:15;;;;;;;13.98;9.20;;;;;;;7.43;100.00;96025.09;1024031;29;20051;-62
2021/04/22 01:48:45;;;;;;;12.25;8.82;;;;;;;7.41;100.00;96019.94;1028110;28;20022;-61
2021/04/22 01:49:16;;;;;;;13.13;9.77;;;;;;;7.41;100.00;96034.97;1020144;29;20119;-62
2021/04/22 01:49:47;;;;;;;12.75;8.60;;;;;;;7.41;100.00;96033.16;1023851;28;20401;-61
2021/04/22 01:50:21;;;;;;;11.82;8.88;;;;;;;7.41;100.00;96034.97;1020073;29;20051;-61
2021/04/22 01:50:52;;;;;;;12.85;9.35;;;;;;;7.38;100.00;96035.28;1032022;28;20105;-60
2021/04/22 01:51:22;;;;;;;12.85;9.07;;;;;;;7.35;100.00;96037.25;1032017;28;20027;-59
2021/04/22 01:51:53;;;;;;;13.65;8.82;;;;;;;7.35;100.00;96042.53;1027892;28;20102;-60
2021/04/22 01:52:25;;;;;;;13.93;9.20;;;;;;;7.33;100.00;96033.94;1028039;28;20508;-61
2021/04/22 01:52:56;;;;;;;13.93;8.77;;;;;;;7.30;100.00;96034.25;1024070;28;20022;-61
2021/04/22 01:53:27;;;;;;;14.00;9.50;;;;;;;7.31;100.00;96035.88;1023948;29;20023;-60
2021/04/22 01:53:57;;;;;;;15.70;9.93;;;;;;;7.30;100.00;96042.16;1035839;28;20016;-62
2021/04/22 01:54:28;;;;;;;13.60;9.75;;;;;;;7.25;100.00;96031.22;1028066;28;20023;-60
2021/04/22 01:54:59;;;;;;;14.32;9.27;;;;;;;7.26;100.00;96040.81;1036042;28;20018;-61
2021/04/22 01:55:33;;;;;;;14.15;10.18;;;;;;;7.27;100.00;96044.28;1024324;28;20019;-60
2021/04/22 01:56:04;;;;;;;12.38;9.65;;;;;;;7.28;100.00;96044.13;1027848;28;20033;-60
2021/04/22 01:56:35;;;;;;;12.43;9.15;;;;;;;7.29;100.00;96047.59;1032089;28;20026;-61
2021/04/22 01:57:06;;;;;;;15.35;9.40;;;;;;;7.27;100.00;96044.28;1031998;28;20057;-60
2021/04/22 01:57:38;;;;;;;14.35;9.77;;;;;;;7.28;100.00;96041.50;1031960;28;20105;-62
2021/04/22 01:58:11;;;;;;;12.95;8.68;;;;;;;7.29;100.00;96044.97;1027890;28;20114;-61
2021/04/22 01:58:42;;;;;;;14.85;10.15;;;;;;;7.26;100.00;96040.81;1020052;29;20486;-61
2021/04/22 01:59:13;;;;;;;14.65;9.63;;;;;;;7.28;100.00;96041.50;1027830;28;20025;-62
2021/04/22 01:59:44;;;;;;;14.10;10.27;;;;;;;7.31;100.00;96046.44;1032028;28;20445;-62
2021/04/22 02:00:18;;;;;;;15.40;10.00;;;;;;;7.34;100.00;96040.06;1023818;29;20030;-61
2021/04/22 02:00:52;;;;;;;15.68;9.57;;;;;;;7.40;100.00;96036.78;1023989;29;20478;-62
2021/04/22 02:01:23;;;;;;;14.70;8.85;;;;;;;7.42;100.00;96048.03;1027918;28;20029;-59
2021/04/22 02:01:54;;;;;;;15.10;9.82;;;;;;;7.43;100.00;96043.59;1035942;28;20021;-62
2021/04/22 02:02:24;;;;;;;14.68;9.80;;;;;;;7.38;100.00;96043.22;1027862;28;20019;-59
2021/04/22 02:02:55;;;;;;;17.45;10.30;;;;;;;7.35;100.00;96042.53;1023991;29;20553;-61
2021/04/22 02:03:28;;;;;;;14.40;9.57;;;;;;;7.39;100.00;96047.53;1027770;28;20019;-60
2021/04/22 02:03:59;;;;;;;13.45;9.40;;;;;;;7.41;100.00;96043.72;1019965;29;20043;-61
2021/04/22 02:04:30;;;;;;;13.82;10.13;;;;;;;7.45;100.00;96047.72;1031757;28;20018;-61
2021/04/22 02:05:01;;;;;;;14.98;10.13;;;;;;;7.47;100.00;96053.69;1023975;28;20461;-62
2021/04/22 02:05:33;;;;;;;16.05;10.52;;;;;;;7.49;100.00;96054.38;1023855;29;20015;-62
2021/04/22 02:06:05;;;;;;;13.82;9.45;;;;;;;7.52;100.00;96055.84;1024024;29;20023;-62
2021/04/22 02:06:35;;;;;;;14.43;9.52;;;;;;;7.55;100.00;96047.63;1027866;28;20049;-61
2021/04/22 02:07:06;;;;;;;12.30;9.07;;;;;;;7.58;100.00;96057.91;1028027;28;20499;-62
2021/04/22 02:07:37;;;;;;;14.77;10.35;;;;;;;7.60;100.00;96066.50;1031964;28;20021;-62
2021/04/22 02:08:08;;;;;;;15.45;9.73;;;;;;;7.64;100.00;96061.72;1031898;28;20295;-61
2021/04/22 02:08:39;;;;;;;15.50;10.27;;;;;;;7.66;100.00;96055.31;1035966;28;20566;-62
2021/04/22 02:09:10;;;;;;;14.63;9.93;;;;;;;7.68;100.00;96056.00;1036148;28;20093;-62
2021/04/22 02:09:41;;;;;;;13.68;10.10;;;;;;;7.69;100.00;96054.16;1023935;29;20466;-62
2021/04/22 02:10:12;;;;;;;13.25;8.55;;;;;;;7.69;100.00;96059.44;1032044;28;20398;-62
2021/04/22 02:10:43;;;;;;;14.32;9.40;;;;;;;7.70;100.00;96063.78;1023849;29;20042;-61
2021/04/22 02:11:14;;;;;;;13.98;9.80;;;;;;;7.72;100.00;96056.50;1028024;28;20015;-61
2021/04/22 02:11:44;;;;;;;11.98;8.77;;;;;;;7.73;100.00;96058.16;1027902;28;20110;-62
2021/04/22 02:12:15;;;;;;;13.20;9.02;;;;;;;7.73;100.00;96052.84;1019950;29;20016;-63
2021/04/22 02:12:46;;;;;;;11.48;8.52;;;;;;;7.72;100.00;96059.97;1027795;28;20022;-61
2021/04/22 02:13:18;;;;;;;10.98;7.90;;;;;;;7.74;100.00;96065.09;1027861;28;20019;-61
2021/04/22 02:13:49;;;;;;;13.65;9.50;;;;;;;7.75;100.00;96058.84;1019782;29;20401;-62
2021/04/22 02:14:19;;;;;;;12.82;8.95;;;;;;;7.76;100.00;96059.66;1023972;29;20038;-61
2021/04/22 02:14:53;;;;;;;12.43;8.90;;;;;;;7.78;100.00;96062.97;1019979;29;20020;-62
2021/04/22 02:15:25;;;;;;;14.85;9.23;;;;;;;7.80;100.00;96058.34;1027947;28;20552;-62
2021/04/22 02:15:56;;;;;;;14.77;8.45;;;;;;;7.77;100.00;96064.81;1023882;29;20019;-62
2021/04/22 02:16:27;;;;;;;13.00;9.23;;;;;;;7.76;100.00;96062.31;1035961;28;20518;-62
2021/04/22 02:16:58;;;;;;;11.80;8.32;;;;;;;7.79;100.00;96062.00;1031802;28;20109;-61
2021/04/22 02:17:29;;;;;;;12.05;9.00;;;;;;;7.75;100.00;96064.13;1027873;28;20066;-60
2021/04/22 02:17:59;;;;;;;12.10;9.25;;;;;;;7.73;100.00;96066.94;1027559;28;20011;-62
2021/04/22 02:18:30;;;;;;;14.45;9.00;;;;;;;7.74;100.00;96068.56;1031961;28;20083;-60
2021/04/22 02:19:01;;;;;;;13.80;9.50;;;;;;;7.72;100.00;96070.53;1027803;28;20011;-61
2021/04/22 02:19:32;;;;;;;13.05;9.05;;;;;;;7.70;100.00;96071.69;1023808;29;20078;-61
2021/04/22 02:20:07;;;;;;;13.23;8.85;;;;;;;7.69;100.00;96070.03;1015952;29;20080;-62
2021/04/22 02:20:38;;;;;;;14.45;9.80;;;;;;;7.65;100.00;96072.16;1023928;29;20402;-62
2021/04/22 02:21:08;;;;;;;13.85;9.48;;;;;;;7.69;100.00;96070.84;1027815;28;20030;-62
2021/04/22 02:21:39;;;;;;;13.82;9.45;;;;;;;7.70;100.00;96076.97;1027922;28;20022;-61
2021/04/22 02:22:10;;;;;;;15.82;10.35;;;;;;;7.72;100.00;96069.72;1023931;29;20045;-62
2021/04/22 02:22:41;;;;;;;16.30;10.52;;;;;;;7.68;100.00;96074.50;1028000;28;20388;-62
2021/04/22 02:23:14;;;;;;;13.60;10.00;;;;;;;7.70;100.00;96067.22;1019700;29;20078;-62
2021/04/22 02:23:45;;;;;;;14.88;10.63;;;;;;;7.73;100.00;96071.38;1027747;28;20026;-62
2021/04/22 02:24:16;;;;;;;14.23;9.70;;;;;;;7.75;100.00;96066.78;1027880;28;20031;-63
2021/04/22 02:24:47;;;;;;;14.18;10.32;;;;;;;7.74;100.00;96068.56;1031925;28;20022;-62
2021/04/22 02:25:19;;;;;;;15.85;10.70;;;;;;;7.77;100.00;96071.88;1027745;28;20030;-62
2021/04/22 02:25:50;;;;;;;16.95;11.07;;;;;;;7.78;100.00;96070.91;1027901;28;20026;-63